sensor_id;sensor_type;location;lat;lon;timestamp;P1;durP1;ratioP1;P2;durP2;ratioP2
20639;SDS011;10479;53.524;9.846;2024-03-02T00:00:19;30.17;;;14.75;;
20639;SDS011;10479;53.524;9.846;2024-03-02T00:02:47;33.67;;;15.85;;
20639;SDS011;10479;53.524;9.846;2024-03-02T00:05:14;36.53;;;15.15;;
20639;SDS011;10479;53.524;9.846;2024-03-02T00:07:41;33.65;;;16.23;;
20639;SDS011;10479;53.524;9.846;2024-03-02T00:10:11;33.05;;;14.38;;
20639;SDS011;10479;53.524;9.846;2024-03-02T00:12:39;35.03;;;16.03;;
20639;SDS011;10479;53.524;9.846;2024-03-02T00:15:15;31.38;;;15.48;;
20639;SDS011;10479;53.524;9.846;2024-03-02T00:18:12;35.38;;;14.52;;
20639;SDS011;10479;53.524;9.846;2024-03-02T00:20:38;36.28;;;16.73;;
20639;SDS011;10479;53.524;9.846;2024-03-02T00:23:06;34.45;;;14.65;;
20639;SDS011;10479;53.524;9.846;2024-03-02T00:25:38;37.40;;;15.93;;
20639;SDS011;10479;53.524;9.846;2024-03-02T00:28:10;33.92;;;15.50;;
20639;SDS011;10479;53.524;9.846;2024-03-02T00:33:22;32.88;;;14.68;;
20639;SDS011;10479;53.524;9.846;2024-03-02T00:35:48;38.13;;;16.60;;
20639;SDS011;10479;53.524;9.846;2024-03-02T00:38:14;30.92;;;14.82;;
20639;SDS011;10479;53.524;9.846;2024-03-02T00:40:43;35.28;;;16.65;;
20639;SDS011;10479;53.524;9.846;2024-03-02T00:43:22;31.92;;;15.13;;
20639;SDS011;10479;53.524;9.846;2024-03-02T00:45:58;40.72;;;17.52;;
20639;SDS011;10479;53.524;9.846;2024-03-02T00:48:23;34.15;;;15.73;;
20639;SDS011;10479;53.524;9.846;2024-03-02T00:50:52;38.03;;;17.38;;
20639;SDS011;10479;53.524;9.846;2024-03-02T00:53:17;32.78;;;16.10;;
20639;SDS011;10479;53.524;9.846;2024-03-02T00:55:49;34.67;;;16.25;;
20639;SDS011;10479;53.524;9.846;2024-03-02T00:58:15;36.97;;;16.77;;
20639;SDS011;10479;53.524;9.846;2024-03-02T01:00:40;33.88;;;16.23;;
20639;SDS011;10479;53.524;9.846;2024-03-02T01:03:06;37.60;;;16.65;;
20639;SDS011;10479;53.524;9.846;2024-03-02T01:05:32;36.63;;;17.55;;
20639;SDS011;10479;53.524;9.846;2024-03-02T01:07:58;40.97;;;18.58;;
20639;SDS011;10479;53.524;9.846;2024-03-02T01:10:23;39.25;;;19.05;;
20639;SDS011;10479;53.524;9.846;2024-03-02T01:12:50;46.28;;;19.23;;
20639;SDS011;10479;53.524;9.846;2024-03-02T01:15:16;48.05;;;19.98;;
20639;SDS011;10479;53.524;9.846;2024-03-02T01:17:42;48.40;;;20.25;;
20639;SDS011;10479;53.524;9.846;2024-03-02T01:20:08;50.55;;;21.33;;
20639;SDS011;10479;53.524;9.846;2024-03-02T01:22:34;53.47;;;21.92;;
20639;SDS011;10479;53.524;9.846;2024-03-02T01:25:01;54.88;;;22.63;;
20639;SDS011;10479;53.524;9.846;2024-03-02T01:27:26;53.58;;;22.65;;
20639;SDS011;10479;53.524;9.846;2024-03-02T01:29:52;56.25;;;23.77;;
20639;SDS011;10479;53.524;9.846;2024-03-02T01:32:17;60.22;;;24.10;;
20639;SDS011;10479;53.524;9.846;2024-03-02T01:34:43;61.38;;;24.45;;
20639;SDS011;10479;53.524;9.846;2024-03-02T01:37:08;60.50;;;24.98;;
20639;SDS011;10479;53.524;9.846;2024-03-02T01:39:35;62.05;;;25.23;;
20639;SDS011;10479;53.524;9.846;2024-03-02T01:42:00;59.15;;;24.23;;
20639;SDS011;10479;53.524;9.846;2024-03-02T01:44:26;65.53;;;26.25;;
20639;SDS011;10479;53.524;9.846;2024-03-02T01:46:51;60.83;;;24.00;;
20639;SDS011;10479;53.524;9.846;2024-03-02T01:49:17;61.80;;;24.83;;
20639;SDS011;10479;53.524;9.846;2024-03-02T01:51:42;66.78;;;24.23;;
20639;SDS011;10479;53.524;9.846;2024-03-02T01:54:07;63.28;;;25.70;;
20639;SDS011;10479;53.524;9.846;2024-03-02T01:56:33;68.70;;;26.58;;
20639;SDS011;10479;53.524;9.846;2024-03-02T01:58:58;66.20;;;26.52;;
20639;SDS011;10479;53.524;9.846;2024-03-02T02:01:24;58.45;;;25.05;;
20639;SDS011;10479;53.524;9.846;2024-03-02T02:03:49;63.25;;;24.63;;
20639;SDS011;10479;53.524;9.846;2024-03-02T02:06:15;64.85;;;25.38;;
20639;SDS011;10479;53.524;9.846;2024-03-02T02:08:40;67.70;;;26.08;;
20639;SDS011;10479;53.524;9.846;2024-03-02T02:11:06;75.38;;;27.45;;
20639;SDS011;10479;53.524;9.846;2024-03-02T02:13:31;61.38;;;24.00;;
20639;SDS011;10479;53.524;9.846;2024-03-02T02:16:04;68.63;;;25.88;;
20639;SDS011;10479;53.524;9.846;2024-03-02T02:18:30;61.03;;;24.27;;
20639;SDS011;10479;53.524;9.846;2024-03-02T02:20:56;65.50;;;26.05;;
20639;SDS011;10479;53.524;9.846;2024-03-02T02:23:21;64.80;;;26.02;;
20639;SDS011;10479;53.524;9.846;2024-03-02T02:25:47;62.47;;;25.95;;
20639;SDS011;10479;53.524;9.846;2024-03-02T02:28:12;63.75;;;25.95;;
20639;SDS011;10479;53.524;9.846;2024-03-02T02:30:38;64.15;;;26.27;;
20639;SDS011;10479;53.524;9.846;2024-03-02T02:33:03;58.25;;;25.70;;
20639;SDS011;10479;53.524;9.846;2024-03-02T02:35:29;64.88;;;26.10;;
20639;SDS011;10479;53.524;9.846;2024-03-02T02:37:55;63.00;;;24.77;;
20639;SDS011;10479;53.524;9.846;2024-03-02T02:40:21;59.85;;;24.48;;
20639;SDS011;10479;53.524;9.846;2024-03-02T02:42:46;57.35;;;23.13;;
20639;SDS011;10479;53.524;9.846;2024-03-02T02:45:12;66.20;;;25.65;;
20639;SDS011;10479;53.524;9.846;2024-03-02T02:47:39;60.17;;;23.73;;
20639;SDS011;10479;53.524;9.846;2024-03-02T02:50:08;60.45;;;24.25;;
20639;SDS011;10479;53.524;9.846;2024-03-02T02:52:35;60.13;;;23.77;;
20639;SDS011;10479;53.524;9.846;2024-03-02T02:55:05;59.58;;;25.02;;
20639;SDS011;10479;53.524;9.846;2024-03-02T02:57:32;64.25;;;24.13;;
20639;SDS011;10479;53.524;9.846;2024-03-02T03:00:04;62.60;;;25.83;;
20639;SDS011;10479;53.524;9.846;2024-03-02T03:02:35;66.05;;;25.50;;
20639;SDS011;10479;53.524;9.846;2024-03-02T03:05:04;69.82;;;25.98;;
20639;SDS011;10479;53.524;9.846;2024-03-02T03:07:31;70.30;;;28.52;;
20639;SDS011;10479;53.524;9.846;2024-03-02T03:09:57;67.68;;;28.70;;
20639;SDS011;10479;53.524;9.846;2024-03-02T03:12:23;63.72;;;26.08;;
20639;SDS011;10479;53.524;9.846;2024-03-02T03:14:48;62.47;;;25.98;;
20639;SDS011;10479;53.524;9.846;2024-03-02T03:17:14;63.85;;;25.30;;
20639;SDS011;10479;53.524;9.846;2024-03-02T03:19:39;77.40;;;27.95;;
20639;SDS011;10479;53.524;9.846;2024-03-02T03:22:04;70.93;;;28.27;;
20639;SDS011;10479;53.524;9.846;2024-03-02T03:24:30;59.40;;;24.67;;
20639;SDS011;10479;53.524;9.846;2024-03-02T03:26:55;67.03;;;25.52;;
20639;SDS011;10479;53.524;9.846;2024-03-02T03:29:21;66.45;;;27.30;;
20639;SDS011;10479;53.524;9.846;2024-03-02T03:31:46;72.45;;;27.35;;
20639;SDS011;10479;53.524;9.846;2024-03-02T03:34:11;62.42;;;25.95;;
20639;SDS011;10479;53.524;9.846;2024-03-02T03:36:40;61.85;;;25.08;;
20639;SDS011;10479;53.524;9.846;2024-03-02T03:39:06;72.55;;;26.17;;
20639;SDS011;10479;53.524;9.846;2024-03-02T03:41:32;59.70;;;25.33;;
20639;SDS011;10479;53.524;9.846;2024-03-02T03:43:57;56.88;;;24.27;;
20639;SDS011;10479;53.524;9.846;2024-03-02T03:46:23;63.13;;;25.95;;
20639;SDS011;10479;53.524;9.846;2024-03-02T03:48:48;61.65;;;24.67;;
20639;SDS011;10479;53.524;9.846;2024-03-02T03:51:14;58.50;;;23.77;;
20639;SDS011;10479;53.524;9.846;2024-03-02T03:53:39;60.15;;;24.17;;
20639;SDS011;10479;53.524;9.846;2024-03-02T03:56:04;63.78;;;26.65;;
20639;SDS011;10479;53.524;9.846;2024-03-02T03:58:30;66.47;;;27.42;;
20639;SDS011;10479;53.524;9.846;2024-03-02T04:00:55;64.18;;;26.00;;
20639;SDS011;10479;53.524;9.846;2024-03-02T04:03:21;62.03;;;24.85;;
20639;SDS011;10479;53.524;9.846;2024-03-02T04:05:47;64.78;;;25.80;;
20639;SDS011;10479;53.524;9.846;2024-03-02T04:08:12;62.10;;;23.98;;
20639;SDS011;10479;53.524;9.846;2024-03-02T04:10:38;65.53;;;24.88;;
20639;SDS011;10479;53.524;9.846;2024-03-02T04:13:03;60.35;;;24.40;;
20639;SDS011;10479;53.524;9.846;2024-03-02T04:15:28;67.15;;;26.75;;
20639;SDS011;10479;53.524;9.846;2024-03-02T04:17:54;64.20;;;25.80;;
20639;SDS011;10479;53.524;9.846;2024-03-02T04:20:20;56.75;;;24.00;;
20639;SDS011;10479;53.524;9.846;2024-03-02T04:22:45;53.95;;;24.42;;
20639;SDS011;10479;53.524;9.846;2024-03-02T04:25:11;61.28;;;25.45;;
20639;SDS011;10479;53.524;9.846;2024-03-02T04:27:36;61.58;;;24.27;;
20639;SDS011;10479;53.524;9.846;2024-03-02T04:30:02;55.63;;;24.10;;
20639;SDS011;10479;53.524;9.846;2024-03-02T04:32:30;57.65;;;24.15;;
20639;SDS011;10479;53.524;9.846;2024-03-02T04:34:56;61.80;;;25.13;;
20639;SDS011;10479;53.524;9.846;2024-03-02T04:37:22;56.35;;;24.45;;
20639;SDS011;10479;53.524;9.846;2024-03-02T04:39:47;65.35;;;26.70;;
20639;SDS011;10479;53.524;9.846;2024-03-02T04:42:13;63.42;;;25.33;;
20639;SDS011;10479;53.524;9.846;2024-03-02T04:44:38;68.97;;;27.45;;
20639;SDS011;10479;53.524;9.846;2024-03-02T04:47:04;67.65;;;26.42;;
20639;SDS011;10479;53.524;9.846;2024-03-02T04:49:30;64.53;;;26.45;;
20639;SDS011;10479;53.524;9.846;2024-03-02T04:51:55;63.92;;;26.02;;
20639;SDS011;10479;53.524;9.846;2024-03-02T04:54:21;58.83;;;23.58;;
20639;SDS011;10479;53.524;9.846;2024-03-02T04:56:47;60.20;;;25.10;;
20639;SDS011;10479;53.524;9.846;2024-03-02T04:59:19;59.70;;;24.48;;
20639;SDS011;10479;53.524;9.846;2024-03-02T05:01:45;61.95;;;25.30;;
20639;SDS011;10479;53.524;9.846;2024-03-02T05:04:10;63.17;;;26.83;;
20639;SDS011;10479;53.524;9.846;2024-03-02T05:06:39;57.08;;;24.52;;
20639;SDS011;10479;53.524;9.846;2024-03-02T05:09:06;67.40;;;25.70;;
20639;SDS011;10479;53.524;9.846;2024-03-02T05:11:31;64.57;;;25.08;;
20639;SDS011;10479;53.524;9.846;2024-03-02T05:14:03;54.10;;;24.05;;
20639;SDS011;10479;53.524;9.846;2024-03-02T05:16:29;55.08;;;24.15;;
20639;SDS011;10479;53.524;9.846;2024-03-02T05:18:54;60.97;;;24.40;;
20639;SDS011;10479;53.524;9.846;2024-03-02T05:21:19;50.72;;;22.27;;
20639;SDS011;10479;53.524;9.846;2024-03-02T05:23:45;56.22;;;24.13;;
20639;SDS011;10479;53.524;9.846;2024-03-02T05:26:10;55.55;;;24.27;;
20639;SDS011;10479;53.524;9.846;2024-03-02T05:28:39;51.92;;;23.23;;
20639;SDS011;10479;53.524;9.846;2024-03-02T05:31:04;57.65;;;26.55;;
20639;SDS011;10479;53.524;9.846;2024-03-02T05:33:30;59.63;;;25.00;;
20639;SDS011;10479;53.524;9.846;2024-03-02T05:35:56;61.50;;;25.55;;
20639;SDS011;10479;53.524;9.846;2024-03-02T05:38:22;55.45;;;24.23;;
20639;SDS011;10479;53.524;9.846;2024-03-02T05:40:47;46.45;;;21.48;;
20639;SDS011;10479;53.524;9.846;2024-03-02T05:43:13;53.28;;;22.23;;
20639;SDS011;10479;53.524;9.846;2024-03-02T05:45:39;58.28;;;24.35;;
20639;SDS011;10479;53.524;9.846;2024-03-02T05:48:05;52.00;;;22.40;;
20639;SDS011;10479;53.524;9.846;2024-03-02T05:50:34;53.95;;;22.27;;
20639;SDS011;10479;53.524;9.846;2024-03-02T05:53:00;54.15;;;21.55;;
20639;SDS011;10479;53.524;9.846;2024-03-02T05:55:25;54.85;;;23.35;;
20639;SDS011;10479;53.524;9.846;2024-03-02T05:57:50;53.97;;;23.08;;
20639;SDS011;10479;53.524;9.846;2024-03-02T06:00:47;53.88;;;22.58;;
20639;SDS011;10479;53.524;9.846;2024-03-02T06:03:13;49.55;;;21.40;;
20639;SDS011;10479;53.524;9.846;2024-03-02T06:05:38;51.47;;;22.77;;
20639;SDS011;10479;53.524;9.846;2024-03-02T06:08:04;55.25;;;23.20;;
20639;SDS011;10479;53.524;9.846;2024-03-02T06:10:29;54.47;;;22.95;;
20639;SDS011;10479;53.524;9.846;2024-03-02T06:12:54;55.67;;;22.58;;
20639;SDS011;10479;53.524;9.846;2024-03-02T06:15:20;60.25;;;25.20;;
20639;SDS011;10479;53.524;9.846;2024-03-02T06:17:45;59.35;;;25.75;;
20639;SDS011;10479;53.524;9.846;2024-03-02T06:20:11;56.35;;;23.67;;
20639;SDS011;10479;53.524;9.846;2024-03-02T06:22:36;61.08;;;24.88;;
20639;SDS011;10479;53.524;9.846;2024-03-02T06:25:02;58.80;;;24.13;;
20639;SDS011;10479;53.524;9.846;2024-03-02T06:27:27;62.50;;;25.60;;
20639;SDS011;10479;53.524;9.846;2024-03-02T06:29:53;63.10;;;26.55;;
20639;SDS011;10479;53.524;9.846;2024-03-02T06:32:19;61.53;;;25.33;;
20639;SDS011;10479;53.524;9.846;2024-03-02T06:34:45;62.40;;;24.75;;
20639;SDS011;10479;53.524;9.846;2024-03-02T06:37:10;63.67;;;24.60;;
20639;SDS011;10479;53.524;9.846;2024-03-02T06:39:36;62.45;;;25.17;;
20639;SDS011;10479;53.524;9.846;2024-03-02T06:42:01;55.25;;;23.48;;
20639;SDS011;10479;53.524;9.846;2024-03-02T06:44:28;56.33;;;23.50;;
20639;SDS011;10479;53.524;9.846;2024-03-02T06:46:55;57.08;;;23.67;;
20639;SDS011;10479;53.524;9.846;2024-03-02T06:49:20;57.15;;;23.45;;
20639;SDS011;10479;53.524;9.846;2024-03-02T06:51:47;61.20;;;25.58;;
20639;SDS011;10479;53.524;9.846;2024-03-02T06:54:13;52.42;;;22.83;;
20639;SDS011;10479;53.524;9.846;2024-03-02T06:56:39;52.50;;;22.27;;
20639;SDS011;10479;53.524;9.846;2024-03-02T06:59:04;54.05;;;22.48;;
20639;SDS011;10479;53.524;9.846;2024-03-02T07:01:33;49.20;;;22.33;;
20639;SDS011;10479;53.524;9.846;2024-03-02T07:03:59;46.30;;;21.15;;
20639;SDS011;10479;53.524;9.846;2024-03-02T07:06:25;50.40;;;21.65;;
20639;SDS011;10479;53.524;9.846;2024-03-02T07:08:50;49.03;;;20.92;;
20639;SDS011;10479;53.524;9.846;2024-03-02T07:11:16;53.92;;;21.80;;
20639;SDS011;10479;53.524;9.846;2024-03-02T07:13:42;50.17;;;21.83;;
20639;SDS011;10479;53.524;9.846;2024-03-02T07:16:07;57.55;;;22.40;;
20639;SDS011;10479;53.524;9.846;2024-03-02T07:18:36;55.45;;;23.73;;
20639;SDS011;10479;53.524;9.846;2024-03-02T07:21:07;54.03;;;22.83;;
20639;SDS011;10479;53.524;9.846;2024-03-02T07:23:32;57.05;;;24.00;;
20639;SDS011;10479;53.524;9.846;2024-03-02T07:25:59;52.80;;;22.50;;
20639;SDS011;10479;53.524;9.846;2024-03-02T07:28:27;57.03;;;23.33;;
20639;SDS011;10479;53.524;9.846;2024-03-02T07:31:02;49.53;;;22.15;;
20639;SDS011;10479;53.524;9.846;2024-03-02T07:33:32;53.28;;;21.70;;
20639;SDS011;10479;53.524;9.846;2024-03-02T07:35:59;52.08;;;22.55;;
20639;SDS011;10479;53.524;9.846;2024-03-02T07:38:26;48.63;;;20.65;;
20639;SDS011;10479;53.524;9.846;2024-03-02T07:40:53;51.50;;;21.38;;
20639;SDS011;10479;53.524;9.846;2024-03-02T07:43:19;52.65;;;21.55;;
20639;SDS011;10479;53.524;9.846;2024-03-02T07:45:45;49.95;;;22.13;;
20639;SDS011;10479;53.524;9.846;2024-03-02T07:48:12;44.85;;;20.52;;
20639;SDS011;10479;53.524;9.846;2024-03-02T07:50:37;51.25;;;20.88;;
20639;SDS011;10479;53.524;9.846;2024-03-02T07:53:04;50.20;;;21.17;;
20639;SDS011;10479;53.524;9.846;2024-03-02T07:55:31;45.55;;;21.33;;
20639;SDS011;10479;53.524;9.846;2024-03-02T07:57:58;48.20;;;21.80;;
20639;SDS011;10479;53.524;9.846;2024-03-02T08:00:24;47.47;;;22.30;;
20639;SDS011;10479;53.524;9.846;2024-03-02T08:02:53;45.53;;;20.83;;
20639;SDS011;10479;53.524;9.846;2024-03-02T08:05:18;44.88;;;20.70;;
20639;SDS011;10479;53.524;9.846;2024-03-02T08:07:45;44.28;;;20.58;;
20639;SDS011;10479;53.524;9.846;2024-03-02T08:10:11;46.42;;;20.70;;
20639;SDS011;10479;53.524;9.846;2024-03-02T08:12:36;44.55;;;19.83;;
20639;SDS011;10479;53.524;9.846;2024-03-02T08:15:02;44.28;;;19.98;;
20639;SDS011;10479;53.524;9.846;2024-03-02T08:17:27;41.90;;;18.98;;
20639;SDS011;10479;53.524;9.846;2024-03-02T08:19:53;42.75;;;18.60;;
20639;SDS011;10479;53.524;9.846;2024-03-02T08:22:19;45.33;;;19.90;;
20639;SDS011;10479;53.524;9.846;2024-03-02T08:24:44;42.95;;;19.63;;
20639;SDS011;10479;53.524;9.846;2024-03-02T08:27:10;43.08;;;18.88;;
20639;SDS011;10479;53.524;9.846;2024-03-02T08:29:35;44.00;;;18.35;;
20639;SDS011;10479;53.524;9.846;2024-03-02T08:32:01;45.72;;;20.55;;
20639;SDS011;10479;53.524;9.846;2024-03-02T08:34:26;45.83;;;19.70;;
20639;SDS011;10479;53.524;9.846;2024-03-02T08:36:51;38.35;;;19.17;;
20639;SDS011;10479;53.524;9.846;2024-03-02T08:39:17;38.70;;;17.60;;
20639;SDS011;10479;53.524;9.846;2024-03-02T08:41:44;37.17;;;18.17;;
20639;SDS011;10479;53.524;9.846;2024-03-02T08:44:10;38.40;;;18.52;;
20639;SDS011;10479;53.524;9.846;2024-03-02T08:46:36;42.90;;;19.35;;
20639;SDS011;10479;53.524;9.846;2024-03-02T08:49:02;41.08;;;18.67;;
20639;SDS011;10479;53.524;9.846;2024-03-02T08:51:28;40.50;;;18.30;;
20639;SDS011;10479;53.524;9.846;2024-03-02T08:53:53;41.65;;;17.83;;
20639;SDS011;10479;53.524;9.846;2024-03-02T08:56:18;37.22;;;16.95;;
20639;SDS011;10479;53.524;9.846;2024-03-02T08:58:45;36.55;;;16.80;;
20639;SDS011;10479;53.524;9.846;2024-03-02T09:01:11;33.53;;;16.65;;
20639;SDS011;10479;53.524;9.846;2024-03-02T09:03:36;35.95;;;17.48;;
20639;SDS011;10479;53.524;9.846;2024-03-02T09:06:02;34.88;;;15.88;;
20639;SDS011;10479;53.524;9.846;2024-03-02T09:08:28;36.15;;;17.17;;
20639;SDS011;10479;53.524;9.846;2024-03-02T09:10:54;31.50;;;15.00;;
20639;SDS011;10479;53.524;9.846;2024-03-02T09:13:19;36.30;;;15.73;;
20639;SDS011;10479;53.524;9.846;2024-03-02T09:15:45;30.60;;;14.80;;
20639;SDS011;10479;53.524;9.846;2024-03-02T09:18:11;28.70;;;14.48;;
20639;SDS011;10479;53.524;9.846;2024-03-02T09:20:36;31.10;;;15.48;;
20639;SDS011;10479;53.524;9.846;2024-03-02T09:23:01;31.70;;;13.77;;
20639;SDS011;10479;53.524;9.846;2024-03-02T09:25:27;28.50;;;13.93;;
20639;SDS011;10479;53.524;9.846;2024-03-02T09:27:52;30.00;;;14.93;;
20639;SDS011;10479;53.524;9.846;2024-03-02T09:30:18;27.33;;;13.30;;
20639;SDS011;10479;53.524;9.846;2024-03-02T09:32:43;24.58;;;12.30;;
20639;SDS011;10479;53.524;9.846;2024-03-02T09:35:08;25.75;;;12.80;;
20639;SDS011;10479;53.524;9.846;2024-03-02T09:37:34;23.98;;;12.10;;
20639;SDS011;10479;53.524;9.846;2024-03-02T09:40:00;25.67;;;12.20;;
20639;SDS011;10479;53.524;9.846;2024-03-02T09:42:26;21.45;;;11.30;;
20639;SDS011;10479;53.524;9.846;2024-03-02T09:44:52;23.27;;;12.25;;
20639;SDS011;10479;53.524;9.846;2024-03-02T09:47:17;23.15;;;11.27;;
20639;SDS011;10479;53.524;9.846;2024-03-02T09:49:43;22.08;;;11.23;;
20639;SDS011;10479;53.524;9.846;2024-03-02T09:52:09;22.63;;;11.70;;
20639;SDS011;10479;53.524;9.846;2024-03-02T09:54:35;20.48;;;11.32;;
20639;SDS011;10479;53.524;9.846;2024-03-02T09:57:01;21.17;;;10.93;;
20639;SDS011;10479;53.524;9.846;2024-03-02T09:59:27;21.83;;;10.80;;
20639;SDS011;10479;53.524;9.846;2024-03-02T10:01:57;21.00;;;11.40;;
20639;SDS011;10479;53.524;9.846;2024-03-02T10:04:27;19.55;;;10.02;;
20639;SDS011;10479;53.524;9.846;2024-03-02T10:09:37;20.63;;;10.90;;
20639;SDS011;10479;53.524;9.846;2024-03-02T10:12:07;20.05;;;10.57;;
20639;SDS011;10479;53.524;9.846;2024-03-02T10:14:33;20.20;;;10.20;;
20639;SDS011;10479;53.524;9.846;2024-03-02T10:17:02;19.52;;;10.25;;
20639;SDS011;10479;53.524;9.846;2024-03-02T10:19:29;20.90;;;9.68;;
20639;SDS011;10479;53.524;9.846;2024-03-02T10:21:58;19.85;;;9.57;;
20639;SDS011;10479;53.524;9.846;2024-03-02T10:24:24;20.27;;;9.45;;
20639;SDS011;10479;53.524;9.846;2024-03-02T10:26:50;20.92;;;9.45;;
20639;SDS011;10479;53.524;9.846;2024-03-02T10:29:16;19.10;;;9.80;;
20639;SDS011;10479;53.524;9.846;2024-03-02T10:31:42;17.15;;;9.00;;
20639;SDS011;10479;53.524;9.846;2024-03-02T10:34:11;17.67;;;8.65;;
20639;SDS011;10479;53.524;9.846;2024-03-02T10:36:41;18.73;;;8.85;;
20639;SDS011;10479;53.524;9.846;2024-03-02T10:39:07;17.45;;;8.02;;
20639;SDS011;10479;53.524;9.846;2024-03-02T10:41:36;17.73;;;8.48;;
20639;SDS011;10479;53.524;9.846;2024-03-02T10:44:03;15.60;;;7.90;;
20639;SDS011;10479;53.524;9.846;2024-03-02T10:46:32;15.43;;;8.20;;
20639;SDS011;10479;53.524;9.846;2024-03-02T10:48:59;16.13;;;7.80;;
20639;SDS011;10479;53.524;9.846;2024-03-02T10:51:26;16.38;;;7.85;;
20639;SDS011;10479;53.524;9.846;2024-03-02T10:53:56;16.05;;;7.68;;
20639;SDS011;10479;53.524;9.846;2024-03-02T10:56:39;15.95;;;7.32;;
20639;SDS011;10479;53.524;9.846;2024-03-02T11:01:57;15.15;;;7.45;;
20639;SDS011;10479;53.524;9.846;2024-03-02T11:04:24;16.08;;;7.45;;
20639;SDS011;10479;53.524;9.846;2024-03-02T11:06:51;15.77;;;7.68;;
20639;SDS011;10479;53.524;9.846;2024-03-02T11:09:18;13.15;;;6.93;;
20639;SDS011;10479;53.524;9.846;2024-03-02T11:11:45;12.60;;;6.72;;
20639;SDS011;10479;53.524;9.846;2024-03-02T11:14:26;12.73;;;6.68;;
20639;SDS011;10479;53.524;9.846;2024-03-02T11:16:55;13.52;;;6.57;;
20639;SDS011;10479;53.524;9.846;2024-03-02T11:19:20;9.88;;;5.40;;
20639;SDS011;10479;53.524;9.846;2024-03-02T11:21:46;13.60;;;6.03;;
20639;SDS011;10479;53.524;9.846;2024-03-02T11:26:46;14.32;;;5.68;;
20639;SDS011;10479;53.524;9.846;2024-03-02T11:34:35;9.65;;;4.97;;
20639;SDS011;10479;53.524;9.846;2024-03-02T11:37:01;13.18;;;5.95;;
20639;SDS011;10479;53.524;9.846;2024-03-02T11:39:27;14.55;;;6.22;;
20639;SDS011;10479;53.524;9.846;2024-03-02T11:41:53;12.43;;;6.32;;
20639;SDS011;10479;53.524;9.846;2024-03-02T11:44:19;12.95;;;6.28;;
20639;SDS011;10479;53.524;9.846;2024-03-02T11:46:45;12.88;;;6.13;;
20639;SDS011;10479;53.524;9.846;2024-03-02T11:49:14;10.70;;;5.13;;
20639;SDS011;10479;53.524;9.846;2024-03-02T11:51:40;10.32;;;4.90;;
20639;SDS011;10479;53.524;9.846;2024-03-02T11:54:18;11.23;;;4.57;;
20639;SDS011;10479;53.524;9.846;2024-03-02T11:56:44;11.40;;;4.95;;
20639;SDS011;10479;53.524;9.846;2024-03-02T11:59:09;9.65;;;4.80;;
20639;SDS011;10479;53.524;9.846;2024-03-02T12:01:35;11.60;;;5.38;;
20639;SDS011;10479;53.524;9.846;2024-03-02T12:04:00;13.15;;;6.28;;
20639;SDS011;10479;53.524;9.846;2024-03-02T12:06:26;14.05;;;7.25;;
20639;SDS011;10479;53.524;9.846;2024-03-02T12:08:53;13.48;;;6.10;;
20639;SDS011;10479;53.524;9.846;2024-03-02T12:11:19;13.68;;;6.55;;
20639;SDS011;10479;53.524;9.846;2024-03-02T12:13:51;10.98;;;6.05;;
20639;SDS011;10479;53.524;9.846;2024-03-02T12:16:23;13.13;;;5.53;;
20639;SDS011;10479;53.524;9.846;2024-03-02T12:18:49;13.57;;;5.53;;
20639;SDS011;10479;53.524;9.846;2024-03-02T12:21:15;11.98;;;5.38;;
20639;SDS011;10479;53.524;9.846;2024-03-02T12:23:40;11.40;;;5.22;;
20639;SDS011;10479;53.524;9.846;2024-03-02T12:26:06;11.10;;;5.22;;
20639;SDS011;10479;53.524;9.846;2024-03-02T12:28:32;10.82;;;5.45;;
20639;SDS011;10479;53.524;9.846;2024-03-02T12:30:58;10.45;;;4.88;;
20639;SDS011;10479;53.524;9.846;2024-03-02T12:33:24;15.43;;;5.32;;
20639;SDS011;10479;53.524;9.846;2024-03-02T12:35:49;11.82;;;6.00;;
20639;SDS011;10479;53.524;9.846;2024-03-02T12:38:15;11.15;;;5.15;;
20639;SDS011;10479;53.524;9.846;2024-03-02T12:40:40;12.30;;;5.32;;
20639;SDS011;10479;53.524;9.846;2024-03-02T12:43:05;13.02;;;5.60;;
20639;SDS011;10479;53.524;9.846;2024-03-02T12:45:31;12.38;;;5.25;;
20639;SDS011;10479;53.524;9.846;2024-03-02T12:47:57;10.13;;;5.05;;
20639;SDS011;10479;53.524;9.846;2024-03-02T12:50:22;11.75;;;4.97;;
20639;SDS011;10479;53.524;9.846;2024-03-02T12:52:54;10.90;;;5.40;;
20639;SDS011;10479;53.524;9.846;2024-03-02T12:55:23;10.37;;;4.53;;
20639;SDS011;10479;53.524;9.846;2024-03-02T12:57:52;10.40;;;4.75;;
20639;SDS011;10479;53.524;9.846;2024-03-02T13:00:18;15.68;;;5.88;;
20639;SDS011;10479;53.524;9.846;2024-03-02T13:02:45;11.23;;;5.13;;
20639;SDS011;10479;53.524;9.846;2024-03-02T13:05:11;11.30;;;5.25;;
20639;SDS011;10479;53.524;9.846;2024-03-02T13:07:38;12.18;;;5.55;;
20639;SDS011;10479;53.524;9.846;2024-03-02T13:10:04;13.95;;;5.28;;
20639;SDS011;10479;53.524;9.846;2024-03-02T13:12:32;11.60;;;5.40;;
20639;SDS011;10479;53.524;9.846;2024-03-02T13:14:58;11.98;;;5.53;;
20639;SDS011;10479;53.524;9.846;2024-03-02T13:17:24;11.13;;;5.35;;
20639;SDS011;10479;53.524;9.846;2024-03-02T13:22:18;11.55;;;5.75;;
20639;SDS011;10479;53.524;9.846;2024-03-02T13:24:44;12.02;;;5.93;;
20639;SDS011;10479;53.524;9.846;2024-03-02T13:27:09;11.88;;;5.50;;
20639;SDS011;10479;53.524;9.846;2024-03-02T13:29:38;14.23;;;6.43;;
20639;SDS011;10479;53.524;9.846;2024-03-02T13:32:04;11.02;;;6.18;;
20639;SDS011;10479;53.524;9.846;2024-03-02T13:34:32;11.05;;;6.07;;
20639;SDS011;10479;53.524;9.846;2024-03-02T13:37:00;10.30;;;5.93;;
20639;SDS011;10479;53.524;9.846;2024-03-02T13:39:30;11.20;;;5.35;;
20639;SDS011;10479;53.524;9.846;2024-03-02T13:42:08;14.02;;;7.20;;
20639;SDS011;10479;53.524;9.846;2024-03-02T13:44:36;15.55;;;5.97;;
20639;SDS011;10479;53.524;9.846;2024-03-02T13:47:03;11.38;;;5.20;;
20639;SDS011;10479;53.524;9.846;2024-03-02T13:49:29;9.35;;;4.82;;
20639;SDS011;10479;53.524;9.846;2024-03-02T13:52:04;12.05;;;5.82;;
20639;SDS011;10479;53.524;9.846;2024-03-02T13:54:44;15.15;;;4.90;;
20639;SDS011;10479;53.524;9.846;2024-03-02T13:57:11;12.13;;;5.28;;
20639;SDS011;10479;53.524;9.846;2024-03-02T13:59:37;11.32;;;5.07;;
20639;SDS011;10479;53.524;9.846;2024-03-02T14:02:06;10.82;;;5.65;;
20639;SDS011;10479;53.524;9.846;2024-03-02T14:04:32;15.50;;;6.63;;
20639;SDS011;10479;53.524;9.846;2024-03-02T14:07:02;12.32;;;6.57;;
20639;SDS011;10479;53.524;9.846;2024-03-02T14:09:32;9.63;;;5.18;;
20639;SDS011;10479;53.524;9.846;2024-03-02T14:12:00;8.65;;;4.47;;
20639;SDS011;10479;53.524;9.846;2024-03-02T14:14:27;8.23;;;4.35;;
20639;SDS011;10479;53.524;9.846;2024-03-02T14:16:53;11.05;;;5.72;;
20639;SDS011;10479;53.524;9.846;2024-03-02T14:19:20;11.75;;;5.10;;
20639;SDS011;10479;53.524;9.846;2024-03-02T14:21:46;12.02;;;6.13;;
20639;SDS011;10479;53.524;9.846;2024-03-02T14:24:13;9.80;;;4.65;;
20639;SDS011;10479;53.524;9.846;2024-03-02T14:26:39;10.52;;;4.95;;
20639;SDS011;10479;53.524;9.846;2024-03-02T14:29:06;11.88;;;4.90;;
20639;SDS011;10479;53.524;9.846;2024-03-02T14:31:31;11.93;;;5.93;;
20639;SDS011;10479;53.524;9.846;2024-03-02T14:33:58;12.35;;;6.35;;
20639;SDS011;10479;53.524;9.846;2024-03-02T14:36:26;10.32;;;4.75;;
20639;SDS011;10479;53.524;9.846;2024-03-02T14:38:53;10.00;;;5.00;;
20639;SDS011;10479;53.524;9.846;2024-03-02T14:41:19;10.15;;;5.05;;